sensor_id;sensor_type;location;lat;lon;timestamp;temperature;humidity
40589;DHT22;26297;49.450;6.640;2023-07-28T00:02:22;19.10;99.90
40589;DHT22;26297;49.450;6.640;2023-07-28T00:05:31;19.10;99.90
40589;DHT22;26297;49.450;6.640;2023-07-28T00:08:37;19.00;99.90
40589;DHT22;26297;49.450;6.640;2023-07-28T00:19:25;19.10;99.90
40589;DHT22;26297;49.450;6.640;2023-07-28T00:22:40;19.10;99.90
40589;DHT22;26297;49.450;6.640;2023-07-28T00:26:20;19.10;99.90
40589;DHT22;26297;49.450;6.640;2023-07-28T00:29:33;19.10;99.90
40589;DHT22;26297;49.450;6.640;2023-07-28T00:37:18;19.00;99.90
40589;DHT22;26297;49.450;6.640;2023-07-28T00:41:01;19.10;99.90
40589;DHT22;26297;49.450;6.640;2023-07-28T00:44:51;19.10;99.90
40589;DHT22;26297;49.450;6.640;2023-07-28T00:52:11;19.10;99.90
40589;DHT22;26297;49.450;6.640;2023-07-28T00:55:47;19.10;99.90
40589;DHT22;26297;49.450;6.640;2023-07-28T00:58:56;19.10;99.90
40589;DHT22;26297;49.450;6.640;2023-07-28T01:06:35;19.00;99.90
40589;DHT22;26297;49.450;6.640;2023-07-28T01:09:49;19.00;99.90
40589;DHT22;26297;49.450;6.640;2023-07-28T01:12:56;19.00;99.90
40589;DHT22;26297;49.450;6.640;2023-07-28T01:15:59;19.00;99.90
40589;DHT22;26297;49.450;6.640;2023-07-28T01:19:03;19.00;99.90
40589;DHT22;26297;49.450;6.640;2023-07-28T01:28:57;19.00;99.90
40589;DHT22;26297;49.450;6.640;2023-07-28T01:32:02;19.00;99.90
40589;DHT22;26297;49.450;6.640;2023-07-28T01:35:07;19.00;99.90
40589;DHT22;26297;49.450;6.640;2023-07-28T01:38:10;19.00;99.90
40589;DHT22;26297;49.450;6.640;2023-07-28T01:41:15;19.00;99.90
40589;DHT22;26297;49.450;6.640;2023-07-28T01:44:18;19.00;99.90
40589;DHT22;26297;49.450;6.640;2023-07-28T01:47:21;19.00;99.90
40589;DHT22;26297;49.450;6.640;2023-07-28T01:50:24;19.00;99.90
40589;DHT22;26297;49.450;6.640;2023-07-28T01:53:28;19.00;99.90
40589;DHT22;26297;49.450;6.640;2023-07-28T01:56:32;19.10;99.90
40589;DHT22;26297;49.450;6.640;2023-07-28T01:59:35;19.10;99.90
40589;DHT22;26297;49.450;6.640;2023-07-28T02:02:38;19.00;99.90
40589;DHT22;26297;49.450;6.640;2023-07-28T02:05:44;19.10;99.90
40589;DHT22;26297;49.450;6.640;2023-07-28T02:08:49;19.10;99.90
40589;DHT22;26297;49.450;6.640;2023-07-28T02:11:53;19.10;99.90
40589;DHT22;26297;49.450;6.640;2023-07-28T02:14:56;19.00;99.90
40589;DHT22;26297;49.450;6.640;2023-07-28T02:17:59;19.00;99.90
40589;DHT22;26297;49.450;6.640;2023-07-28T02:21:02;19.10;99.90
40589;DHT22;26297;49.450;6.640;2023-07-28T02:24:06;19.10;99.90
40589;DHT22;26297;49.450;6.640;2023-07-28T02:27:09;19.10;99.90
40589;DHT22;26297;49.450;6.640;2023-07-28T02:30:13;19.10;99.90
40589;DHT22;26297;49.450;6.640;2023-07-28T02:33:19;19.10;99.90
40589;DHT22;26297;49.450;6.640;2023-07-28T02:36:22;19.10;99.90
40589;DHT22;26297;49.450;6.640;2023-07-28T02:39:26;19.10;99.90
40589;DHT22;26297;49.450;6.640;2023-07-28T02:42:29;19.00;99.90
40589;DHT22;26297;49.450;6.640;2023-07-28T02:45:36;19.10;99.90
40589;DHT22;26297;49.450;6.640;2023-07-28T02:48:39;19.10;99.90
40589;DHT22;26297;49.450;6.640;2023-07-28T02:51:42;19.10;99.90
40589;DHT22;26297;49.450;6.640;2023-07-28T02:54:47;19.10;99.90
40589;DHT22;26297;49.450;6.640;2023-07-28T02:58:31;19.20;99.90
40589;DHT22;26297;49.450;6.640;2023-07-28T03:01:34;19.10;99.90
40589;DHT22;26297;49.450;6.640;2023-07-28T03:04:38;19.10;99.90
40589;DHT22;26297;49.450;6.640;2023-07-28T03:07:41;19.20;99.90
40589;DHT22;26297;49.450;6.640;2023-07-28T03:10:47;19.20;99.90
40589;DHT22;26297;49.450;6.640;2023-07-28T03:13:50;19.10;99.90
40589;DHT22;26297;49.450;6.640;2023-07-28T03:16:56;19.10;99.90
40589;DHT22;26297;49.450;6.640;2023-07-28T03:19:59;19.10;99.90
40589;DHT22;26297;49.450;6.640;2023-07-28T03:23:02;19.20;99.90
40589;DHT22;26297;49.450;6.640;2023-07-28T03:26:05;19.10;99.90
40589;DHT22;26297;49.450;6.640;2023-07-28T03:29:09;19.10;99.90
40589;DHT22;26297;49.450;6.640;2023-07-28T03:32:27;19.10;99.90
40589;DHT22;26297;49.450;6.640;2023-07-28T03:35:30;19.10;99.90
40589;DHT22;26297;49.450;6.640;2023-07-28T03:38:33;19.10;99.90
40589;DHT22;26297;49.450;6.640;2023-07-28T03:41:37;19.00;99.90
40589;DHT22;26297;49.450;6.640;2023-07-28T03:44:41;19.00;99.90
40589;DHT22;26297;49.450;6.640;2023-07-28T03:47:47;19.10;99.90
40589;DHT22;26297;49.450;6.640;2023-07-28T03:50:53;19.00;99.90
40589;DHT22;26297;49.450;6.640;2023-07-28T03:53:56;19.10;99.90
40589;DHT22;26297;49.450;6.640;2023-07-28T03:57:00;19.10;99.90
40589;DHT22;26297;49.450;6.640;2023-07-28T04:00:07;19.20;99.90
40589;DHT22;26297;49.450;6.640;2023-07-28T04:03:10;19.10;99.90
40589;DHT22;26297;49.450;6.640;2023-07-28T04:06:16;19.20;99.90
40589;DHT22;26297;49.450;6.640;2023-07-28T04:09:19;19.20;99.90
40589;DHT22;26297;49.450;6.640;2023-07-28T04:12:31;19.10;99.90
40589;DHT22;26297;49.450;6.640;2023-07-28T04:15:38;19.00;99.90
40589;DHT22;26297;49.450;6.640;2023-07-28T04:18:41;19.10;99.90
40589;DHT22;26297;49.450;6.640;2023-07-28T04:21:45;19.00;99.90
40589;DHT22;26297;49.450;6.640;2023-07-28T04:24:49;19.00;99.90
40589;DHT22;26297;49.450;6.640;2023-07-28T04:27:52;19.00;99.90
40589;DHT22;26297;49.450;6.640;2023-07-28T04:30:55;18.90;99.90
40589;DHT22;26297;49.450;6.640;2023-07-28T04:33:58;18.90;99.90
40589;DHT22;26297;49.450;6.640;2023-07-28T04:37:01;18.90;99.90
40589;DHT22;26297;49.450;6.640;2023-07-28T04:40:10;18.90;99.90
40589;DHT22;26297;49.450;6.640;2023-07-28T04:43:23;18.90;99.90
40589;DHT22;26297;49.450;6.640;2023-07-28T04:46:32;18.90;99.90
40589;DHT22;26297;49.450;6.640;2023-07-28T04:49:38;18.90;99.90
40589;DHT22;26297;49.450;6.640;2023-07-28T04:52:41;18.90;99.90
40589;DHT22;26297;49.450;6.640;2023-07-28T04:55:45;19.00;99.90
40589;DHT22;26297;49.450;6.640;2023-07-28T04:58:48;19.00;99.90
40589;DHT22;26297;49.450;6.640;2023-07-28T05:01:55;19.00;99.90
40589;DHT22;26297;49.450;6.640;2023-07-28T05:04:58;19.10;99.90
40589;DHT22;26297;49.450;6.640;2023-07-28T05:08:08;19.10;99.90
40589;DHT22;26297;49.450;6.640;2023-07-28T05:11:14;19.10;99.90
40589;DHT22;26297;49.450;6.640;2023-07-28T05:14:21;19.10;99.90
40589;DHT22;26297;49.450;6.640;2023-07-28T05:21:29;19.10;99.90
40589;DHT22;26297;49.450;6.640;2023-07-28T05:24:33;19.10;99.90
40589;DHT22;26297;49.450;6.640;2023-07-28T05:27:37;19.10;99.90
40589;DHT22;26297;49.450;6.640;2023-07-28T05:30:47;19.10;99.90
40589;DHT22;26297;49.450;6.640;2023-07-28T05:33:53;19.10;99.90
40589;DHT22;26297;49.450;6.640;2023-07-28T05:37:00;19.10;99.90
40589;DHT22;26297;49.450;6.640;2023-07-28T05:40:06;19.10;99.90
40589;DHT22;26297;49.450;6.640;2023-07-28T05:43:15;19.10;99.90
40589;DHT22;26297;49.450;6.640;2023-07-28T05:46:18;19.10;99.90
40589;DHT22;26297;49.450;6.640;2023-07-28T05:49:43;19.20;99.90
40589;DHT22;26297;49.450;6.640;2023-07-28T05:57:09;19.10;99.90
40589;DHT22;26297;49.450;6.640;2023-07-28T06:00:13;19.20;99.90
40589;DHT22;26297;49.450;6.640;2023-07-28T06:03:19;19.20;99.90
40589;DHT22;26297;49.450;6.640;2023-07-28T06:06:29;19.10;99.90
40589;DHT22;26297;49.450;6.640;2023-07-28T06:09:32;19.20;99.90
40589;DHT22;26297;49.450;6.640;2023-07-28T06:12:36;19.20;99.90
40589;DHT22;26297;49.450;6.640;2023-07-28T06:15:42;19.20;99.90
40589;DHT22;26297;49.450;6.640;2023-07-28T06:18:49;19.10;99.90
40589;DHT22;26297;49.450;6.640;2023-07-28T06:21:53;19.20;99.90
40589;DHT22;26297;49.450;6.640;2023-07-28T06:24:58;19.20;99.90
40589;DHT22;26297;49.450;6.640;2023-07-28T06:28:08;19.20;99.90
40589;DHT22;26297;49.450;6.640;2023-07-28T06:31:32;19.20;99.90
40589;DHT22;26297;49.450;6.640;2023-07-28T06:34:43;19.20;99.90
40589;DHT22;26297;49.450;6.640;2023-07-28T06:37:46;19.20;99.90
40589;DHT22;26297;49.450;6.640;2023-07-28T06:40:52;19.20;99.90
40589;DHT22;26297;49.450;6.640;2023-07-28T06:43:58;19.20;99.90
40589;DHT22;26297;49.450;6.640;2023-07-28T06:47:02;19.20;99.90
40589;DHT22;26297;49.450;6.640;2023-07-28T06:50:08;19.20;99.90
40589;DHT22;26297;49.450;6.640;2023-07-28T06:53:11;19.20;99.90
40589;DHT22;26297;49.450;6.640;2023-07-28T06:56:15;19.20;99.90
40589;DHT22;26297;49.450;6.640;2023-07-28T06:59:20;19.30;99.90
40589;DHT22;26297;49.450;6.640;2023-07-28T07:02:27;19.30;99.90
40589;DHT22;26297;49.450;6.640;2023-07-28T07:05:33;19.30;99.90
40589;DHT22;26297;49.450;6.640;2023-07-28T07:08:36;19.30;99.90
40589;DHT22;26297;49.450;6.640;2023-07-28T07:11:40;19.30;99.90
40589;DHT22;26297;49.450;6.640;2023-07-28T07:14:46;19.30;99.90
40589;DHT22;26297;49.450;6.640;2023-07-28T07:17:51;19.30;99.90
40589;DHT22;26297;49.450;6.640;2023-07-28T07:20:54;19.30;99.90
40589;DHT22;26297;49.450;6.640;2023-07-28T07:24:00;19.30;99.90
40589;DHT22;26297;49.450;6.640;2023-07-28T07:27:09;19.30;99.90
40589;DHT22;26297;49.450;6.640;2023-07-28T07:30:14;19.30;99.90
40589;DHT22;26297;49.450;6.640;2023-07-28T07:33:17;19.30;99.90
40589;DHT22;26297;49.450;6.640;2023-07-28T07:36:23;19.30;99.90
40589;DHT22;26297;49.450;6.640;2023-07-28T07:39:26;19.30;99.90
40589;DHT22;26297;49.450;6.640;2023-07-28T07:42:45;19.30;99.90
40589;DHT22;26297;49.450;6.640;2023-07-28T07:49:38;19.20;99.90
40589;DHT22;26297;49.450;6.640;2023-07-28T07:52:44;19.30;99.90
40589;DHT22;26297;49.450;6.640;2023-07-28T07:55:48;19.30;99.90
40589;DHT22;26297;49.450;6.640;2023-07-28T07:58:53;19.30;99.90
40589;DHT22;26297;49.450;6.640;2023-07-28T08:01:59;19.30;99.90
40589;DHT22;26297;49.450;6.640;2023-07-28T08:05:06;19.30;99.90
40589;DHT22;26297;49.450;6.640;2023-07-28T08:08:09;19.30;99.90
40589;DHT22;26297;49.450;6.640;2023-07-28T08:11:13;19.30;99.90
40589;DHT22;26297;49.450;6.640;2023-07-28T08:14:16;19.40;99.90
40589;DHT22;26297;49.450;6.640;2023-07-28T08:17:19;19.40;99.90
40589;DHT22;26297;49.450;6.640;2023-07-28T08:20:23;19.40;99.90
40589;DHT22;26297;49.450;6.640;2023-07-28T08:23:26;19.40;99.90
40589;DHT22;26297;49.450;6.640;2023-07-28T08:26:33;19.40;99.90
40589;DHT22;26297;49.450;6.640;2023-07-28T08:29:36;19.40;99.90
40589;DHT22;26297;49.450;6.640;2023-07-28T08:32:42;19.40;99.90
40589;DHT22;26297;49.450;6.640;2023-07-28T08:35:49;19.40;99.90
40589;DHT22;26297;49.450;6.640;2023-07-28T08:38:53;19.40;99.90
40589;DHT22;26297;49.450;6.640;2023-07-28T08:42:01;19.40;99.90
40589;DHT22;26297;49.450;6.640;2023-07-28T08:45:06;19.40;99.90
40589;DHT22;26297;49.450;6.640;2023-07-28T08:48:22;19.40;99.90
40589;DHT22;26297;49.450;6.640;2023-07-28T08:51:25;19.40;99.90
40589;DHT22;26297;49.450;6.640;2023-07-28T08:54:29;19.40;99.90
40589;DHT22;26297;49.450;6.640;2023-07-28T08:57:32;19.40;99.90
40589;DHT22;26297;49.450;6.640;2023-07-28T09:00:36;19.40;99.90
40589;DHT22;26297;49.450;6.640;2023-07-28T09:03:40;19.40;99.90
40589;DHT22;26297;49.450;6.640;2023-07-28T09:06:45;19.40;99.90
40589;DHT22;26297;49.450;6.640;2023-07-28T09:09:49;19.50;99.90
40589;DHT22;26297;49.450;6.640;2023-07-28T09:12:52;19.50;99.90
40589;DHT22;26297;49.450;6.640;2023-07-28T09:16:02;19.60;99.90
40589;DHT22;26297;49.450;6.640;2023-07-28T09:19:08;19.60;99.90
40589;DHT22;26297;49.450;6.640;2023-07-28T09:22:15;19.60;99.90
40589;DHT22;26297;49.450;6.640;2023-07-28T09:25:18;19.60;99.90
40589;DHT22;26297;49.450;6.640;2023-07-28T09:28:22;19.60;99.90
40589;DHT22;26297;49.450;6.640;2023-07-28T09:31:32;19.60;99.90
40589;DHT22;26297;49.450;6.640;2023-07-28T09:34:37;19.60;99.90
40589;DHT22;26297;49.450;6.640;2023-07-28T09:37:45;19.60;99.90
40589;DHT22;26297;49.450;6.640;2023-07-28T09:40:51;19.60;99.90
40589;DHT22;26297;49.450;6.640;2023-07-28T09:44:01;19.60;99.90
40589;DHT22;26297;49.450;6.640;2023-07-28T09:47:05;19.60;99.90
40589;DHT22;26297;49.450;6.640;2023-07-28T09:50:10;19.60;99.90
40589;DHT22;26297;49.450;6.640;2023-07-28T09:53:17;19.60;99.90
40589;DHT22;26297;49.450;6.640;2023-07-28T09:56:39;19.60;99.90
40589;DHT22;26297;49.450;6.640;2023-07-28T09:59:56;19.60;99.90
40589;DHT22;26297;49.450;6.640;2023-07-28T10:07:15;19.60;99.90
40589;DHT22;26297;49.450;6.640;2023-07-28T10:10:18;19.60;99.90
40589;DHT22;26297;49.450;6.640;2023-07-28T10:13:25;19.60;99.90
40589;DHT22;26297;49.450;6.640;2023-07-28T10:16:38;19.50;99.90
40589;DHT22;26297;49.450;6.640;2023-07-28T10:19:49;19.60;99.90
40589;DHT22;26297;49.450;6.640;2023-07-28T10:22:52;19.60;99.90
40589;DHT22;26297;49.450;6.640;2023-07-28T10:26:03;19.60;99.90
40589;DHT22;26297;49.450;6.640;2023-07-28T10:29:17;19.50;99.90
40589;DHT22;26297;49.450;6.640;2023-07-28T10:32:28;19.50;99.90
40589;DHT22;26297;49.450;6.640;2023-07-28T10:39:28;19.50;99.90
40589;DHT22;26297;49.450;6.640;2023-07-28T10:42:39;19.50;99.90
40589;DHT22;26297;49.450;6.640;2023-07-28T10:45:45;19.50;99.90
40589;DHT22;26297;49.450;6.640;2023-07-28T10:48:52;19.60;99.90
40589;DHT22;26297;49.450;6.640;2023-07-28T10:51:56;19.60;99.90
40589;DHT22;26297;49.450;6.640;2023-07-28T10:55:23;19.60;99.90
40589;DHT22;26297;49.450;6.640;2023-07-28T10:58:33;19.60;99.90
40589;DHT22;26297;49.450;6.640;2023-07-28T11:01:40;19.60;99.90
40589;DHT22;26297;49.450;6.640;2023-07-28T11:08:50;19.60;99.90
40589;DHT22;26297;49.450;6.640;2023-07-28T11:12:12;19.60;99.90
40589;DHT22;26297;49.450;6.640;2023-07-28T11:15:25;19.50;99.90
40589;DHT22;26297;49.450;6.640;2023-07-28T11:18:31;19.60;99.90
40589;DHT22;26297;49.450;6.640;2023-07-28T11:22:02;19.50;99.90
40589;DHT22;26297;49.450;6.640;2023-07-28T11:25:16;19.60;99.90
40589;DHT22;26297;49.450;6.640;2023-07-28T11:28:22;19.60;99.90
40589;DHT22;26297;49.450;6.640;2023-07-28T11:42:52;19.60;99.90
40589;DHT22;26297;49.450;6.640;2023-07-28T11:45:59;19.60;99.90
40589;DHT22;26297;49.450;6.640;2023-07-28T11:49:28;19.70;99.90
40589;DHT22;26297;49.450;6.640;2023-07-28T11:52:39;19.70;99.90
40589;DHT22;26297;49.450;6.640;2023-07-28T11:59:31;19.60;99.90
40589;DHT22;26297;49.450;6.640;2023-07-28T12:02:35;19.60;99.90
40589;DHT22;26297;49.450;6.640;2023-07-28T12:06:01;19.60;99.90
40589;DHT22;26297;49.450;6.640;2023-07-28T12:09:09;19.60;99.90
40589;DHT22;26297;49.450;6.640;2023-07-28T12:12:13;19.60;99.90
40589;DHT22;26297;49.450;6.640;2023-07-28T12:15:26;19.60;99.90
40589;DHT22;26297;49.450;6.640;2023-07-28T12:18:33;19.60;99.90
40589;DHT22;26297;49.450;6.640;2023-07-28T12:25:51;19.60;99.90
40589;DHT22;26297;49.450;6.640;2023-07-28T12:29:23;19.60;99.90
40589;DHT22;26297;49.450;6.640;2023-07-28T12:32:34;19.60;99.90
40589;DHT22;26297;49.450;6.640;2023-07-28T12:35:51;19.60;99.90
40589;DHT22;26297;49.450;6.640;2023-07-28T12:38:54;19.60;99.90
40589;DHT22;26297;49.450;6.640;2023-07-28T12:41:57;19.60;99.90
40589;DHT22;26297;49.450;6.640;2023-07-28T12:45:01;19.60;99.90
40589;DHT22;26297;49.450;6.640;2023-07-28T12:48:04;19.70;99.90
40589;DHT22;26297;49.450;6.640;2023-07-28T12:51:09;19.70;99.90
40589;DHT22;26297;49.450;6.640;2023-07-28T12:54:29;19.70;99.90
40589;DHT22;26297;49.450;6.640;2023-07-28T12:57:57;19.60;99.90
40589;DHT22;26297;49.450;6.640;2023-07-28T13:01:11;19.60;99.90
40589;DHT22;26297;49.450;6.640;2023-07-28T13:04:22;19.70;99.90
40589;DHT22;26297;49.450;6.640;2023-07-28T13:07:29;19.70;99.90
40589;DHT22;26297;49.450;6.640;2023-07-28T13:10:35;19.70;99.90
40589;DHT22;26297;49.450;6.640;2023-07-28T13:13:42;19.70;99.90
40589;DHT22;26297;49.450;6.640;2023-07-28T13:16:45;19.70;99.90
40589;DHT22;26297;49.450;6.640;2023-07-28T13:19:51;19.70;99.90
40589;DHT22;26297;49.450;6.640;2023-07-28T13:23:00;19.70;99.90
40589;DHT22;26297;49.450;6.640;2023-07-28T13:26:30;19.80;99.90
40589;DHT22;26297;49.450;6.640;2023-07-28T13:29:34;19.80;99.90
40589;DHT22;26297;49.450;6.640;2023-07-28T13:32:36;19.80;99.90
40589;DHT22;26297;49.450;6.640;2023-07-28T13:36:09;19.80;99.90
40589;DHT22;26297;49.450;6.640;2023-07-28T13:39:19;19.80;99.90
40589;DHT22;26297;49.450;6.640;2023-07-28T13:42:30;19.80;99.90
40589;DHT22;26297;49.450;6.640;2023-07-28T13:45:35;19.80;99.90
40589;DHT22;26297;49.450;6.640;2023-07-28T13:48:45;19.80;99.90
40589;DHT22;26297;49.450;6.640;2023-07-28T13:55:01;19.80;99.90
40589;DHT22;26297;49.450;6.640;2023-07-28T13:58:14;19.80;99.90
40589;DHT22;26297;49.450;6.640;2023-07-28T14:01:19;19.80;99.90
40589;DHT22;26297;49.450;6.640;2023-07-28T14:24:08;19.90;99.90
40589;DHT22;26297;49.450;6.640;2023-07-28T14:27:16;19.80;99.90
40589;DHT22;26297;49.450;6.640;2023-07-28T14:30:20;19.90;99.90
40589;DHT22;26297;49.450;6.640;2023-07-28T14:33:23;19.80;99.90
40589;DHT22;26297;49.450;6.640;2023-07-28T14:36:26;19.90;99.90
40589;DHT22;26297;49.450;6.640;2023-07-28T14:39:36;19.90;99.90
40589;DHT22;26297;49.450;6.640;2023-07-28T14:42:41;19.90;99.90
40589;DHT22;26297;49.450;6.640;2023-07-28T14:46:20;19.80;99.90
40589;DHT22;26297;49.450;6.640;2023-07-28T14:53:37;19.80;99.90
40589;DHT22;26297;49.450;6.640;2023-07-28T14:56:40;19.80;99.90
40589;DHT22;26297;49.450;6.640;2023-07-28T14:59:46;19.80;99.90
40589;DHT22;26297;49.450;6.640;2023-07-28T15:02:49;19.80;99.90
40589;DHT22;26297;49.450;6.640;2023-07-28T15:05:52;19.80;99.90
40589;DHT22;26297;49.450;6.640;2023-07-28T15:08:56;19.80;99.90
40589;DHT22;26297;49.450;6.640;2023-07-28T15:12:01;19.80;99.90
40589;DHT22;26297;49.450;6.640;2023-07-28T15:15:05;19.90;99.90
40589;DHT22;26297;49.450;6.640;2023-07-28T15:18:12;19.90;99.90
40589;DHT22;26297;49.450;6.640;2023-07-28T15:21:17;19.90;99.90
40589;DHT22;26297;49.450;6.640;2023-07-28T15:24:23;20.00;99.90
40589;DHT22;26297;49.450;6.640;2023-07-28T15:27:26;19.90;99.90
40589;DHT22;26297;49.450;6.640;2023-07-28T15:30:49;20.00;99.90
40589;DHT22;26297;49.450;6.640;2023-07-28T15:34:07;20.00;99.90
40589;DHT22;26297;49.450;6.640;2023-07-28T15:37:10;19.90;99.90
40589;DHT22;26297;49.450;6.640;2023-07-28T15:40:17;19.90;99.90
40589;DHT22;26297;49.450;6.640;2023-07-28T15:43:29;19.90;99.90
40589;DHT22;26297;49.450;6.640;2023-07-28T15:46:38;19.90;99.90
40589;DHT22;26297;49.450;6.640;2023-07-28T15:49:43;19.90;99.90
40589;DHT22;26297;49.450;6.640;2023-07-28T15:52:46;19.90;99.90
40589;DHT22;26297;49.450;6.640;2023-07-28T15:55:50;19.90;99.90
40589;DHT22;26297;49.450;6.640;2023-07-28T15:58:53;19.90;99.90
40589;DHT22;26297;49.450;6.640;2023-07-28T16:01:57;20.00;99.90
40589;DHT22;26297;49.450;6.640;2023-07-28T16:05:00;20.00;99.90
40589;DHT22;26297;49.450;6.640;2023-07-28T16:08:06;20.00;99.90
40589;DHT22;26297;49.450;6.640;2023-07-28T16:11:09;20.00;99.90
40589;DHT22;26297;49.450;6.640;2023-07-28T16:18:09;20.10;99.90
40589;DHT22;26297;49.450;6.640;2023-07-28T16:21:14;20.10;99.90
40589;DHT22;26297;49.450;6.640;2023-07-28T16:24:20;20.10;99.90
40589;DHT22;26297;49.450;6.640;2023-07-28T16:27:26;20.20;99.90
40589;DHT22;26297;49.450;6.640;2023-07-28T16:30:36;20.10;99.90
40589;DHT22;26297;49.450;6.640;2023-07-28T16:33:42;20.20;99.90
40589;DHT22;26297;49.450;6.640;2023-07-28T16:36:50;20.20;99.90
40589;DHT22;26297;49.450;6.640;2023-07-28T16:39:58;20.20;99.90
40589;DHT22;26297;49.450;6.640;2023-07-28T16:43:05;20.30;99.90
40589;DHT22;26297;49.450;6.640;2023-07-28T16:50:12;20.30;99.90
40589;DHT22;26297;49.450;6.640;2023-07-28T16:53:23;20.30;99.90
40589;DHT22;26297;49.450;6.640;2023-07-28T16:57:07;20.40;99.90
40589;DHT22;26297;49.450;6.640;2023-07-28T17:00:53;20.40;99.90
40589;DHT22;26297;49.450;6.640;2023-07-28T17:07:51;20.30;99.90
40589;DHT22;26297;49.450;6.640;2023-07-28T17:10:55;20.30;99.90
40589;DHT22;26297;49.450;6.640;2023-07-28T17:14:09;20.40;99.90
40589;DHT22;26297;49.450;6.640;2023-07-28T17:17:16;20.40;99.90
40589;DHT22;26297;49.450;6.640;2023-07-28T17:24:25;20.40;99.90
40589;DHT22;26297;49.450;6.640;2023-07-28T17:27:36;20.40;99.90
40589;DHT22;26297;49.450;6.640;2023-07-28T17:31:04;20.40;99.90
40589;DHT22;26297;49.450;6.640;2023-07-28T17:34:16;20.30;99.90
40589;DHT22;26297;49.450;6.640;2023-07-28T17:37:20;20.40;99.90
40589;DHT22;26297;49.450;6.640;2023-07-28T17:44:01;20.30;99.90
40589;DHT22;26297;49.450;6.640;2023-07-28T17:47:05;20.40;99.90
40589;DHT22;26297;49.450;6.640;2023-07-28T17:50:19;20.30;99.90
40589;DHT22;26297;49.450;6.640;2023-07-28T17:53:40;20.30;99.90
40589;DHT22;26297;49.450;6.640;2023-07-28T17:56:44;20.30;99.90
40589;DHT22;26297;49.450;6.640;2023-07-28T17:59:46;20.30;99.90
40589;DHT22;26297;49.450;6.640;2023-07-28T18:06:19;20.20;99.90
40589;DHT22;26297;49.450;6.640;2023-07-28T18:09:34;20.20;99.90
40589;DHT22;26297;49.450;6.640;2023-07-28T18:12:40;20.20;99.90
40589;DHT22;26297;49.450;6.640;2023-07-28T18:15:46;20.20;99.90
40589;DHT22;26297;49.450;6.640;2023-07-28T18:18:50;20.20;99.90
40589;DHT22;26297;49.450;6.640;2023-07-28T18:22:00;20.20;99.90
40589;DHT22;26297;49.450;6.640;2023-07-28T18:25:06;20.10;99.90
40589;DHT22;26297;49.450;6.640;2023-07-28T18:28:17;20.20;99.90
40589;DHT22;26297;49.450;6.640;2023-07-28T18:31:21;20.20;99.90
40589;DHT22;26297;49.450;6.640;2023-07-28T18:34:28;20.20;99.90
40589;DHT22;26297;49.450;6.640;2023-07-28T18:37:32;20.20;99.90
40589;DHT22;26297;49.450;6.640;2023-07-28T18:40:47;20.20;99.90
40589;DHT22;26297;49.450;6.640;2023-07-28T18:43:50;20.20;99.90
40589;DHT22;26297;49.450;6.640;2023-07-28T18:46:53;20.20;99.90
40589;DHT22;26297;49.450;6.640;2023-07-28T18:49:57;20.20;99.90
40589;DHT22;26297;49.450;6.640;2023-07-28T18:53:00;20.10;99.90
40589;DHT22;26297;49.450;6.640;2023-07-28T18:56:08;20.10;99.90
40589;DHT22;26297;49.450;6.640;2023-07-28T18:59:14;20.10;99.90
40589;DHT22;26297;49.450;6.640;2023-07-28T19:02:20;20.20;99.90
40589;DHT22;26297;49.450;6.640;2023-07-28T19:05:25;20.10;99.90
40589;DHT22;26297;49.450;6.640;2023-07-28T19:08:29;20.20;99.90
40589;DHT22;26297;49.450;6.640;2023-07-28T19:11:32;20.10;99.90
40589;DHT22;26297;49.450;6.640;2023-07-28T19:14:36;20.10;99.90
40589;DHT22;26297;49.450;6.640;2023-07-28T19:17:41;20.10;99.90
40589;DHT22;26297;49.450;6.640;2023-07-28T19:20:51;20.10;99.90
40589;DHT22;26297;49.450;6.640;2023-07-28T19:24:33;20.10;99.90
40589;DHT22;26297;49.450;6.640;2023-07-28T19:27:38;20.00;99.90
40589;DHT22;26297;49.450;6.640;2023-07-28T19:30:42;20.00;99.90
40589;DHT22;26297;49.450;6.640;2023-07-28T19:33:54;20.00;99.90
40589;DHT22;26297;49.450;6.640;2023-07-28T19:37:02;20.00;99.90
40589;DHT22;26297;49.450;6.640;2023-07-28T19:40:06;20.00;99.90
40589;DHT22;26297;49.450;6.640;2023-07-28T19:43:09;20.00;99.90
40589;DHT22;26297;49.450;6.640;2023-07-28T19:46:15;20.00;99.90
40589;DHT22;26297;49.450;6.640;2023-07-28T19:49:18;20.00;99.90
40589;DHT22;26297;49.450;6.640;2023-07-28T19:52:24;20.00;99.90
40589;DHT22;26297;49.450;6.640;2023-07-28T19:55:27;20.00;99.90
40589;DHT22;26297;49.450;6.640;2023-07-28T19:58:31;20.00;99.90
40589;DHT22;26297;49.450;6.640;2023-07-28T20:01:34;19.90;99.90
40589;DHT22;26297;49.450;6.640;2023-07-28T20:04:41;20.00;99.90
40589;DHT22;26297;49.450;6.640;2023-07-28T20:07:47;19.90;99.90
40589;DHT22;26297;49.450;6.640;2023-07-28T20:10:55;19.90;99.90
40589;DHT22;26297;49.450;6.640;2023-07-28T20:14:41;19.90;99.90
40589;DHT22;26297;49.450;6.640;2023-07-28T20:17:46;19.90;99.90
40589;DHT22;26297;49.450;6.640;2023-07-28T20:20:49;19.90;99.90
40589;DHT22;26297;49.450;6.640;2023-07-28T20:23:52;19.90;99.90
40589;DHT22;26297;49.450;6.640;2023-07-28T20:26:56;19.90;99.90
40589;DHT22;26297;49.450;6.640;2023-07-28T20:29:59;19.90;99.90
40589;DHT22;26297;49.450;6.640;2023-07-28T20:33:21;19.90;99.90
40589;DHT22;26297;49.450;6.640;2023-07-28T20:36:24;19.90;99.90
40589;DHT22;26297;49.450;6.640;2023-07-28T20:39:29;19.90;99.90
40589;DHT22;26297;49.450;6.640;2023-07-28T20:42:32;20.00;99.90
40589;DHT22;26297;49.450;6.640;2023-07-28T20:45:35;19.90;99.90
40589;DHT22;26297;49.450;6.640;2023-07-28T20:49:01;20.00;99.90
40589;DHT22;26297;49.450;6.640;2023-07-28T20:52:14;20.00;99.90
40589;DHT22;26297;49.450;6.640;2023-07-28T20:55:17;19.90;99.90
40589;DHT22;26297;49.450;6.640;2023-07-28T20:58:21;19.90;99.90
40589;DHT22;26297;49.450;6.640;2023-07-28T22:05:36;19.70;99.90
40589;DHT22;26297;49.450;6.640;2023-07-28T22:08:45;19.70;99.90
40589;DHT22;26297;49.450;6.640;2023-07-28T22:11:48;19.70;99.90
40589;DHT22;26297;49.450;6.640;2023-07-28T22:14:52;19.70;99.90
40589;DHT22;26297;49.450;6.640;2023-07-28T22:18:13;19.70;99.90
40589;DHT22;26297;49.450;6.640;2023-07-28T22:21:21;19.70;99.90
40589;DHT22;26297;49.450;6.640;2023-07-28T22:24:25;19.70;99.90
40589;DHT22;26297;49.450;6.640;2023-07-28T22:27:32;19.60;99.90
40589;DHT22;26297;49.450;6.640;2023-07-28T22:30:44;19.60;99.90
40589;DHT22;26297;49.450;6.640;2023-07-28T22:33:50;19.60;99.90
40589;DHT22;26297;49.450;6.640;2023-07-28T22:37:07;19.50;99.90
40589;DHT22;26297;49.450;6.640;2023-07-28T22:40:15;19.50;99.90
40589;DHT22;26297;49.450;6.640;2023-07-28T22:43:21;19.50;99.90
40589;DHT22;26297;49.450;6.640;2023-07-28T22:46:26;19.50;99.90
40589;DHT22;26297;49.450;6.640;2023-07-28T22:49:29;19.50;99.90
40589;DHT22;26297;49.450;6.640;2023-07-28T22:52:36;19.50;99.90